createdAt,value
2016-06-28T00:00:50.296Z,-47
2016-06-28T00:01:50.495Z,-50
2016-06-28T00:02:50.416Z,-52
2016-06-28T00:03:50.365Z,-51
2016-06-28T00:04:50.325Z,-50
2016-06-28T00:05:50.425Z,-50
2016-06-28T00:06:50.323Z,-48
2016-06-28T00:07:50.333Z,-51
2016-06-28T00:08:50.296Z,-51
2016-06-28T00:09:51.130Z,-51
2016-06-28T00:10:50.354Z,-51
2016-06-28T00:11:50.256Z,-50
2016-06-28T00:12:50.295Z,-51
2016-06-28T00:13:50.257Z,-49
2016-06-28T00:14:50.293Z,-47
2016-06-28T00:15:50.286Z,-52
2016-06-28T00:16:50.307Z,-52
2016-06-28T00:17:50.285Z,-51
2016-06-28T00:18:50.272Z,-51
2016-06-28T00:19:50.317Z,-50
2016-06-28T00:20:50.292Z,-50
2016-06-28T00:21:50.279Z,-49
2016-06-28T00:22:50.338Z,-50
2016-06-28T00:23:50.306Z,-50
2016-06-28T00:24:50.263Z,-52
2016-06-28T00:25:50.274Z,-51
2016-06-28T00:26:50.254Z,-50
2016-06-28T00:27:50.269Z,-51
2016-06-28T00:28:50.254Z,-50
2016-06-28T00:29:50.263Z,-51
2016-06-28T00:30:50.507Z,-51
2016-06-28T00:31:50.264Z,-50
2016-06-28T00:32:50.295Z,-50
2016-06-28T00:33:50.434Z,-51
2016-06-28T00:34:50.293Z,-50
2016-06-28T00:35:50.319Z,-49
2016-06-28T00:36:50.317Z,-49
2016-06-28T00:37:50.282Z,-50
2016-06-28T00:38:50.264Z,-49
2016-06-28T00:39:50.303Z,-49
2016-06-28T00:40:50.311Z,-48
2016-06-28T00:41:50.255Z,-49
2016-06-28T00:42:50.390Z,-49
2016-06-28T00:43:50.378Z,-49
2016-06-28T00:44:50.323Z,-49
2016-06-28T00:45:50.476Z,-50
2016-06-28T00:46:50.439Z,-50
2016-06-28T00:47:50.310Z,-48
2016-06-28T00:48:50.293Z,-50
2016-06-28T00:49:50.317Z,-51
2016-06-28T00:50:50.361Z,-51
2016-06-28T00:51:50.317Z,-51
2016-06-28T00:52:50.338Z,-50
2016-06-28T00:53:50.299Z,-50
2016-06-28T00:54:50.363Z,-49
2016-06-28T00:55:50.323Z,-49
2016-06-28T00:56:50.318Z,-49
2016-06-28T00:57:50.319Z,-50
2016-06-28T00:58:50.319Z,-49
2016-06-28T00:59:50.296Z,-51
2016-06-28T01:00:50.334Z,-48
2016-06-28T01:01:50.324Z,-48
2016-06-28T01:02:50.282Z,-48
2016-06-28T01:03:50.464Z,-49
2016-06-28T01:04:50.420Z,-50
2016-06-28T01:05:50.368Z,-49
2016-06-28T01:06:50.333Z,-49
2016-06-28T01:07:50.359Z,-50
2016-06-28T01:08:50.312Z,-48
2016-06-28T01:09:50.288Z,-49
2016-06-28T01:10:50.296Z,-49
2016-06-28T01:11:50.363Z,-50
2016-06-28T01:12:50.617Z,-49
2016-06-28T01:13:50.368Z,-49
2016-06-28T01:14:50.350Z,-50
2016-06-28T01:15:50.289Z,-51
2016-06-28T01:16:50.439Z,-51
2016-06-28T01:17:50.360Z,-50
2016-06-28T01:18:51.221Z,-50
2016-06-28T01:19:50.386Z,-51
2016-06-28T01:20:50.375Z,-52
2016-06-28T01:21:50.337Z,-50
2016-06-28T01:22:50.366Z,-51
2016-06-28T01:23:50.375Z,-51
2016-06-28T01:24:50.415Z,-48
2016-06-28T01:25:50.401Z,-48
2016-06-28T01:26:50.368Z,-51
2016-06-28T01:27:50.692Z,-51
2016-06-28T01:28:50.393Z,-51
2016-06-28T01:29:51.309Z,-49
2016-06-28T01:30:50.324Z,-50
2016-06-28T01:31:50.325Z,-51
2016-06-28T01:32:50.426Z,-50
2016-06-28T01:33:50.411Z,-50
2016-06-28T01:34:50.389Z,-51
2016-06-28T01:35:51.142Z,-51
2016-06-28T01:36:51.312Z,-50
2016-06-28T01:37:50.337Z,-49
2016-06-28T01:38:50.355Z,-50
2016-06-28T01:39:50.761Z,-50
2016-06-28T01:40:50.396Z,-51
2016-06-28T01:41:50.334Z,-51
2016-06-28T01:42:50.357Z,-48
2016-06-28T01:43:50.380Z,-50
2016-06-28T01:44:50.443Z,-51
2016-06-28T01:45:50.462Z,-50
2016-06-28T01:46:50.399Z,-50
2016-06-28T01:47:50.383Z,-49
2016-06-28T01:48:50.761Z,-50
2016-06-28T01:49:50.380Z,-50
2016-06-28T01:50:50.370Z,-49
2016-06-28T01:51:50.906Z,-50
2016-06-28T01:52:50.397Z,-51
2016-06-28T01:53:50.409Z,-51
2016-06-28T01:54:50.404Z,-50
2016-06-28T01:55:50.385Z,-50
2016-06-28T01:56:50.317Z,-49
2016-06-28T01:57:50.337Z,-48
2016-06-28T01:58:50.381Z,-49
2016-06-28T01:59:50.386Z,-50
2016-06-28T02:00:50.334Z,-49
2016-06-28T02:01:50.374Z,-50
2016-06-28T02:02:50.351Z,-50
2016-06-28T02:03:51.343Z,-50
2016-06-28T02:04:50.412Z,-51
2016-06-28T02:05:50.431Z,-51
2016-06-28T02:06:50.402Z,-52
2016-06-28T02:07:50.355Z,-50
2016-06-28T02:08:50.382Z,-49
2016-06-28T02:09:50.554Z,-49
2016-06-28T02:10:50.370Z,-49
2016-06-28T02:11:50.345Z,-49
2016-06-28T02:12:50.337Z,-49
2016-06-28T02:13:50.464Z,-50
2016-06-28T02:14:50.351Z,-50
2016-06-28T02:15:50.578Z,-48
2016-06-28T02:16:50.349Z,-50
2016-06-28T02:17:50.383Z,-50
2016-06-28T02:18:50.668Z,-51
2016-06-28T02:19:50.348Z,-50
2016-06-28T02:20:50.330Z,-50
2016-06-28T02:21:50.749Z,-50
2016-06-28T02:22:50.348Z,-50
2016-06-28T02:23:50.378Z,-49
2016-06-28T02:24:50.330Z,-49
2016-06-28T02:25:50.415Z,-49
2016-06-28T02:26:50.410Z,-49
2016-06-28T02:27:50.400Z,-49
2016-06-28T02:28:50.364Z,-50
2016-06-28T02:29:50.368Z,-51
2016-06-28T02:30:50.536Z,-51
2016-06-28T02:31:50.646Z,-52
2016-06-28T02:32:50.372Z,-51
2016-06-28T02:33:50.425Z,-51
2016-06-28T02:34:50.449Z,-49
2016-06-28T02:35:50.378Z,-51
2016-06-28T02:36:51.206Z,-50
2016-06-28T02:37:50.406Z,-50
2016-06-28T02:38:50.415Z,-48
2016-06-28T02:39:50.515Z,-50
2016-06-28T02:40:50.420Z,-49
2016-06-28T02:41:50.490Z,-50
2016-06-28T02:42:50.448Z,-50
2016-06-28T02:43:50.394Z,-47
2016-06-28T02:44:50.420Z,-50
2016-06-28T02:45:50.659Z,-52
2016-06-28T02:46:50.434Z,-51
2016-06-28T02:47:50.395Z,-52
2016-06-28T02:48:50.390Z,-51
2016-06-28T02:49:50.398Z,-51
2016-06-28T02:50:50.410Z,-50
2016-06-28T02:51:50.424Z,-51
2016-06-28T02:52:50.671Z,-49
2016-06-28T02:53:50.389Z,-50
2016-06-28T02:54:50.398Z,-51
2016-06-28T02:55:50.750Z,-51
2016-06-28T02:56:50.594Z,-51
2016-06-28T02:57:50.387Z,-52
2016-06-28T02:58:50.376Z,-51
2016-06-28T02:59:50.442Z,-49
2016-06-28T03:00:50.638Z,-50
2016-06-28T03:01:50.420Z,-51
2016-06-28T03:02:50.359Z,-49
2016-06-28T03:03:51.377Z,-52
2016-06-28T03:04:50.386Z,-51
2016-06-28T03:05:50.390Z,-52
2016-06-28T03:06:50.387Z,-52
2016-06-28T03:07:50.390Z,-51
2016-06-28T03:08:50.384Z,-50
2016-06-28T03:09:50.469Z,-50
2016-06-28T03:10:50.406Z,-51
2016-06-28T03:11:50.373Z,-50
2016-06-28T03:12:50.427Z,-50
2016-06-28T03:13:50.370Z,-51
2016-06-28T03:14:50.518Z,-52
2016-06-28T03:15:50.390Z,-49
2016-06-28T03:16:50.445Z,-49
2016-06-28T03:17:50.385Z,-49
2016-06-28T03:18:50.468Z,-51
2016-06-28T03:19:50.409Z,-52
2016-06-28T03:20:50.412Z,-52
2016-06-28T03:21:50.405Z,-51
2016-06-28T03:22:50.445Z,-52
2016-06-28T03:23:50.425Z,-50
2016-06-28T03:24:50.429Z,-50
2016-06-28T03:25:50.370Z,-50
2016-06-28T03:26:50.397Z,-50
2016-06-28T03:27:50.414Z,-50
2016-06-28T03:28:50.427Z,-50
2016-06-28T03:29:50.537Z,-51
2016-06-28T03:30:51.068Z,-52
2016-06-28T03:31:50.472Z,-51
2016-06-28T03:32:50.424Z,-52
2016-06-28T03:33:50.505Z,-51
2016-06-28T03:34:50.432Z,-49
2016-06-28T03:35:50.510Z,-49
2016-06-28T03:36:50.447Z,-49
2016-06-28T03:37:50.415Z,-49
2016-06-28T03:38:50.383Z,-51
2016-06-28T03:39:50.762Z,-50
2016-06-28T03:40:50.438Z,-50
2016-06-28T03:41:50.463Z,-52
2016-06-28T03:42:50.420Z,-52
2016-06-28T03:43:50.447Z,-52
2016-06-28T03:44:50.383Z,-51
2016-06-28T03:45:50.397Z,-48
2016-06-28T03:46:50.629Z,-49
2016-06-28T03:47:50.443Z,-49
2016-06-28T03:48:50.584Z,-51
2016-06-28T03:49:50.402Z,-49
2016-06-28T03:50:50.426Z,-48
2016-06-28T03:51:50.463Z,-50
2016-06-28T03:52:50.454Z,-49
2016-06-28T03:53:50.522Z,-49
2016-06-28T03:54:50.550Z,-48
2016-06-28T03:55:50.468Z,-49
2016-06-28T03:56:50.442Z,-49
2016-06-28T03:57:50.463Z,-49
2016-06-28T03:58:50.478Z,-50
2016-06-28T03:59:50.963Z,-49
2016-06-28T04:00:50.463Z,-49
2016-06-28T04:01:50.448Z,-50
2016-06-28T04:02:50.444Z,-49
2016-06-28T04:03:50.426Z,-48
2016-06-28T04:04:50.450Z,-49
2016-06-28T04:05:51.200Z,-50
2016-06-28T04:06:50.527Z,-50
2016-06-28T04:07:50.451Z,-50
2016-06-28T04:08:50.448Z,-49
2016-06-28T04:09:50.514Z,-49
2016-06-28T04:10:50.456Z,-49
2016-06-28T04:11:50.551Z,-50
2016-06-28T04:12:50.504Z,-50
2016-06-28T04:13:50.513Z,-50
2016-06-28T04:14:50.560Z,-51
2016-06-28T04:15:50.506Z,-51
2016-06-28T04:16:50.497Z,-50
2016-06-28T04:17:50.485Z,-49
2016-06-28T04:18:50.531Z,-51
2016-06-28T04:19:50.471Z,-49
2016-06-28T04:20:50.446Z,-48
2016-06-28T04:21:50.511Z,-48
2016-06-28T04:22:50.491Z,-48
2016-06-28T04:23:50.469Z,-49
2016-06-28T04:24:50.467Z,-50
2016-06-28T04:25:51.004Z,-51
2016-06-28T04:26:50.517Z,-51
2016-06-28T04:27:50.565Z,-51
2016-06-28T04:28:50.480Z,-51
2016-06-28T04:29:50.563Z,-51
2016-06-28T04:30:50.482Z,-50
2016-06-28T04:31:51.053Z,-50
2016-06-28T04:32:50.497Z,-50
2016-06-28T04:33:50.608Z,-50
2016-06-28T04:34:50.492Z,-49
2016-06-28T04:36:37.803Z,-49
2016-06-28T04:36:51.875Z,-49
2016-06-28T04:38:12.987Z,-51
2016-06-28T04:39:40.865Z,-51
2016-06-28T04:40:13.069Z,-50
2016-06-28T04:40:57.860Z,-50
2016-06-28T04:43:04.415Z,-51
2016-06-28T04:44:26.716Z,-49
2016-06-28T04:45:50.866Z,-48
2016-06-28T04:47:14.134Z,-50
2016-06-28T04:48:35.562Z,-49
2016-06-28T04:49:57.767Z,-50
2016-06-28T04:51:20.499Z,-49
2016-06-28T04:52:45.947Z,-49
2016-06-28T04:54:07.907Z,-51
2016-06-28T04:55:31.552Z,-51
2016-06-28T04:56:02.106Z,-52
2016-06-28T04:57:44.178Z,-49
2016-06-28T04:58:59.303Z,-51
2016-06-28T05:00:14.858Z,-50
2016-06-28T05:00:57.875Z,-49
2016-06-28T05:01:25.184Z,-51
2016-06-28T05:02:25.133Z,-50
2016-06-28T05:03:25.414Z,-49
2016-06-28T05:04:25.247Z,-50
2016-06-28T05:05:25.178Z,-51
2016-06-28T05:06:25.126Z,-51
2016-06-28T05:07:25.159Z,-50
2016-06-28T05:08:25.859Z,-49
2016-06-28T05:09:25.147Z,-51
2016-06-28T05:10:25.220Z,-51
2016-06-28T05:11:25.121Z,-48
2016-06-28T05:12:25.131Z,-50
2016-06-28T05:13:25.135Z,-47
2016-06-28T05:14:25.197Z,-51
2016-06-28T05:15:25.171Z,-49
2016-06-28T05:16:25.175Z,-49
2016-06-28T05:17:25.148Z,-49
2016-06-28T05:18:25.142Z,-51
2016-06-28T05:19:25.181Z,-49
2016-06-28T05:20:25.158Z,-51
2016-06-28T05:21:25.211Z,-50
2016-06-28T05:22:25.179Z,-49
2016-06-28T05:23:25.160Z,-49
2016-06-28T05:24:25.143Z,-49
2016-06-28T05:25:25.223Z,-49
2016-06-28T05:26:25.225Z,-50
2016-06-28T05:27:25.174Z,-50
2016-06-28T05:28:25.114Z,-50
2016-06-28T05:29:25.125Z,-50
2016-06-28T05:30:25.132Z,-51
2016-06-28T05:31:25.140Z,-50
2016-06-28T05:32:25.192Z,-52
2016-06-28T05:33:25.170Z,-51
2016-06-28T05:34:25.115Z,-52
2016-06-28T05:35:25.148Z,-52
2016-06-28T05:36:25.174Z,-52
2016-06-28T05:37:25.162Z,-51
2016-06-28T05:38:25.130Z,-49
2016-06-28T05:39:25.165Z,-49
2016-06-28T05:40:25.212Z,-51
2016-06-28T05:41:25.208Z,-51
2016-06-28T05:42:25.155Z,-49
2016-06-28T05:43:25.121Z,-49
2016-06-28T05:44:25.157Z,-49
2016-06-28T05:45:25.148Z,-51
2016-06-28T05:46:25.151Z,-51
2016-06-28T05:47:25.297Z,-49
2016-06-28T05:48:25.155Z,-50
2016-06-28T05:49:25.149Z,-50
2016-06-28T05:50:25.134Z,-50
2016-06-28T05:51:25.898Z,-49
2016-06-28T05:52:25.141Z,-49
2016-06-28T05:53:25.219Z,-51
2016-06-28T05:54:25.148Z,-50
2016-06-28T05:55:25.161Z,-51
2016-06-28T05:56:25.222Z,-52
2016-06-28T05:57:25.102Z,-51
2016-06-28T05:58:25.187Z,-51
2016-06-28T05:59:26.527Z,-50
2016-06-28T06:00:25.199Z,-52
2016-06-28T06:01:25.146Z,-49
2016-06-28T06:02:25.274Z,-48
2016-06-28T06:03:25.246Z,-51
2016-06-28T06:04:25.278Z,-50
2016-06-28T06:05:25.202Z,-51
2016-06-28T06:06:25.172Z,-50
2016-06-28T06:07:25.222Z,-50
2016-06-28T06:08:26.074Z,-46
2016-06-28T06:09:25.226Z,-49
2016-06-28T06:10:25.203Z,-50
2016-06-28T06:11:25.209Z,-51
2016-06-28T06:12:25.322Z,-49
2016-06-28T06:13:25.227Z,-48
2016-06-28T06:14:25.210Z,-51
2016-06-28T06:15:25.269Z,-49
2016-06-28T06:16:25.224Z,-49
2016-06-28T06:17:25.203Z,-50
2016-06-28T06:18:25.227Z,-50
2016-06-28T06:19:25.209Z,-51
2016-06-28T06:20:25.109Z,-51
2016-06-28T06:21:25.218Z,-51
2016-06-28T06:22:25.959Z,-52
2016-06-28T06:23:25.201Z,-52
2016-06-28T06:24:25.353Z,-51
2016-06-28T06:25:26.652Z,-50
2016-06-28T06:26:25.760Z,-50
2016-06-28T06:27:25.267Z,-53
2016-06-28T06:28:26.032Z,-49
2016-06-28T06:29:25.295Z,-51
2016-06-28T06:30:25.394Z,-52
2016-06-28T06:31:25.437Z,-53
2016-06-28T06:32:25.496Z,-50
2016-06-28T06:33:26.217Z,-51
2016-06-28T06:34:25.276Z,-49
2016-06-28T06:35:25.940Z,-50
2016-06-28T06:36:25.170Z,-48
2016-06-28T06:37:26.771Z,-51
2016-06-28T06:38:25.216Z,-50
2016-06-28T06:39:25.232Z,-50
2016-06-28T06:40:25.246Z,-53
2016-06-28T06:41:25.235Z,-52
2016-06-28T06:42:25.226Z,-51
2016-06-28T06:43:25.249Z,-49
2016-06-28T06:44:25.193Z,-50
2016-06-28T06:45:25.221Z,-50
2016-06-28T06:46:25.215Z,-51
2016-06-28T06:47:25.234Z,-53
2016-06-28T06:48:25.199Z,-52
2016-06-28T06:49:25.249Z,-52
2016-06-28T06:50:25.232Z,-51
2016-06-28T06:51:25.270Z,-52
2016-06-28T06:52:25.214Z,-51
2016-06-28T06:53:25.266Z,-53
2016-06-28T06:54:25.234Z,-51
2016-06-28T06:55:25.333Z,-51
2016-06-28T06:56:25.209Z,-52
2016-06-28T06:57:25.219Z,-52
2016-06-28T06:58:25.806Z,-52
2016-06-28T06:59:25.234Z,-52
2016-06-28T07:00:25.705Z,-52
2016-06-28T07:01:25.240Z,-52
2016-06-28T07:02:25.239Z,-51
2016-06-28T07:03:25.405Z,-51
2016-06-28T07:04:25.377Z,-51
2016-06-28T07:05:25.325Z,-51
2016-06-28T07:06:25.242Z,-52
2016-06-28T07:07:25.383Z,-52
2016-06-28T07:08:25.214Z,-50
2016-06-28T07:09:25.242Z,-52
2016-06-28T07:10:25.258Z,-52
2016-06-28T07:11:25.262Z,-53
2016-06-28T07:12:25.809Z,-52
2016-06-28T07:13:26.169Z,-52
2016-06-28T07:14:25.190Z,-51
2016-06-28T07:15:25.306Z,-50
2016-06-28T07:16:25.244Z,-50
2016-06-28T07:17:25.228Z,-50
2016-06-28T07:18:25.310Z,-50
2016-06-28T07:19:27.965Z,-51
2016-06-28T07:20:26.294Z,-50
2016-06-28T07:21:25.357Z,-51
2016-06-28T07:22:25.298Z,-50
2016-06-28T07:23:25.331Z,-50
2016-06-28T07:24:25.277Z,-50
2016-06-28T07:25:25.279Z,-50
2016-06-28T07:26:25.296Z,-52
2016-06-28T07:27:25.301Z,-52
2016-06-28T07:28:25.291Z,-52
2016-06-28T07:29:25.301Z,-52
2016-06-28T07:30:25.365Z,-51
2016-06-28T07:31:25.322Z,-50
2016-06-28T07:32:25.360Z,-51
2016-06-28T07:33:25.589Z,-51
2016-06-28T07:34:25.538Z,-50
2016-06-28T07:35:25.506Z,-52
2016-06-28T07:36:26.399Z,-56
2016-06-28T07:37:25.553Z,-51
2016-06-28T07:38:25.663Z,-51
2016-06-28T07:39:25.980Z,-50
2016-06-28T07:40:25.372Z,-50
2016-06-28T07:41:25.502Z,-49
2016-06-28T07:42:25.496Z,-51
2016-06-28T07:43:25.445Z,-51
2016-06-28T07:44:26.399Z,-50
2016-06-28T07:45:26.401Z,-49
2016-06-28T07:46:26.124Z,-50
2016-06-28T07:47:25.465Z,-51
2016-06-28T07:48:26.428Z,-51
2016-06-28T07:49:25.382Z,-51
2016-06-28T07:50:25.473Z,-52
2016-06-28T07:51:25.355Z,-49
2016-06-28T07:52:25.381Z,-50
2016-06-28T07:53:25.398Z,-50
2016-06-28T07:54:25.448Z,-50
2016-06-28T07:55:27.708Z,-49
2016-06-28T07:56:25.323Z,-49
2016-06-28T07:57:25.450Z,-49
2016-06-28T07:58:25.338Z,-49
2016-06-28T07:59:26.466Z,-55
2016-06-28T08:00:25.325Z,-53
2016-06-28T08:01:28.718Z,-56
2016-06-28T08:02:25.291Z,-56
2016-06-28T08:03:25.338Z,-55
2016-06-28T08:04:25.379Z,-55
2016-06-28T08:05:25.344Z,-56
2016-06-28T08:06:25.311Z,-55
2016-06-28T08:07:25.375Z,-55
2016-06-28T08:08:25.388Z,-50
2016-06-28T08:09:25.386Z,-55
2016-06-28T08:10:25.415Z,-53
2016-06-28T08:11:25.292Z,-56
2016-06-28T08:12:25.310Z,-56
2016-06-28T08:13:25.366Z,-55
2016-06-28T08:14:25.349Z,-49
2016-06-28T08:15:25.360Z,-53
2016-06-28T08:16:25.404Z,-54
2016-06-28T08:17:25.982Z,-54
2016-06-28T08:18:25.441Z,-53
2016-06-28T08:19:25.693Z,-52
2016-06-28T08:20:25.999Z,-50
2016-06-28T08:21:25.313Z,-52
2016-06-28T08:22:25.337Z,-50
2016-06-28T08:23:25.394Z,-50
2016-06-28T08:24:25.315Z,-56
2016-06-28T08:25:25.382Z,-51
2016-06-28T08:26:25.360Z,-51
2016-06-28T08:27:25.568Z,-56
2016-06-28T08:28:25.393Z,-57
2016-06-28T08:29:25.702Z,-56
2016-06-28T08:30:25.634Z,-55
2016-06-28T08:31:25.398Z,-54
2016-06-28T08:32:25.473Z,-54
2016-06-28T08:33:25.421Z,-57
2016-06-28T08:34:26.207Z,-56
2016-06-28T08:35:25.450Z,-55
2016-06-28T08:36:25.390Z,-56
2016-06-28T08:37:25.375Z,-53
2016-06-28T08:38:25.660Z,-57
2016-06-28T08:39:25.499Z,-55
2016-06-28T08:40:25.431Z,-57
2016-06-28T08:41:25.494Z,-58
2016-06-28T08:42:25.419Z,-57
2016-06-28T08:43:25.382Z,-57
2016-06-28T08:44:25.417Z,-57
2016-06-28T08:45:25.551Z,-56
2016-06-28T08:46:25.384Z,-56
2016-06-28T08:47:25.520Z,-56
2016-06-28T08:48:25.583Z,-56
2016-06-28T08:49:25.419Z,-55
2016-06-28T08:50:25.544Z,-55
2016-06-28T08:51:25.670Z,-54
2016-06-28T08:52:25.549Z,-55
2016-06-28T08:53:26.581Z,-57
2016-06-28T08:54:25.409Z,-55
2016-06-28T08:55:25.483Z,-57
2016-06-28T08:56:25.460Z,-53
2016-06-28T08:57:28.279Z,-56
2016-06-28T08:58:26.210Z,-55
2016-06-28T08:59:25.348Z,-56
2016-06-28T09:00:25.459Z,-56
2016-06-28T09:01:25.390Z,-56
2016-06-28T09:02:26.016Z,-56
2016-06-28T09:03:25.389Z,-56
2016-06-28T09:04:25.422Z,-57
2016-06-28T09:05:25.430Z,-58
2016-06-28T09:06:25.396Z,-56
2016-06-28T09:07:27.181Z,-57
2016-06-28T09:08:25.400Z,-55
2016-06-28T09:09:25.380Z,-55
2016-06-28T09:10:25.373Z,-56
2016-06-28T09:11:26.370Z,-57
2016-06-28T09:12:27.222Z,-57
2016-06-28T09:13:25.406Z,-57
2016-06-28T09:14:25.487Z,-55
2016-06-28T09:15:25.403Z,-58
2016-06-28T09:16:25.396Z,-56
2016-06-28T09:17:25.425Z,-55
2016-06-28T09:18:25.390Z,-53
2016-06-28T09:19:25.476Z,-53
2016-06-28T09:20:25.377Z,-57
2016-06-28T09:21:25.417Z,-56
2016-06-28T09:22:25.418Z,-55
2016-06-28T09:23:25.462Z,-55
2016-06-28T09:24:25.427Z,-55
2016-06-28T09:25:25.467Z,-56
2016-06-28T09:26:25.423Z,-51
2016-06-28T09:27:25.503Z,-53
2016-06-28T09:28:25.610Z,-54
2016-06-28T09:29:25.397Z,-50
2016-06-28T09:30:25.391Z,-56
2016-06-28T09:31:25.439Z,-55
2016-06-28T09:32:25.383Z,-55
2016-06-28T09:33:26.150Z,-55
2016-06-28T09:34:25.353Z,-55
2016-06-28T09:35:25.395Z,-50
2016-06-28T09:36:25.413Z,-52
2016-06-28T09:37:25.427Z,-54
2016-06-28T09:38:25.462Z,-54
2016-06-28T09:39:25.419Z,-55
2016-06-28T09:40:25.422Z,-54
2016-06-28T09:41:26.135Z,-55
2016-06-28T09:42:25.426Z,-56
2016-06-28T09:43:25.386Z,-60
2016-06-28T09:44:25.386Z,-57
2016-06-28T09:45:25.441Z,-53
2016-06-28T09:46:25.396Z,-53
2016-06-28T09:47:25.456Z,-50
2016-06-28T09:48:25.435Z,-52
2016-06-28T09:49:25.470Z,-54
2016-06-28T09:50:26.378Z,-52
2016-06-28T09:51:25.991Z,-53
2016-06-28T09:52:25.461Z,-54
2016-06-28T09:53:25.462Z,-53
2016-06-28T09:54:25.529Z,-53
2016-06-28T09:55:25.452Z,-52
2016-06-28T09:56:25.458Z,-52
2016-06-28T09:57:25.455Z,-56
2016-06-28T09:58:25.518Z,-53
2016-06-28T09:59:25.492Z,-51
2016-06-28T10:00:25.468Z,-58
2016-06-28T10:01:25.432Z,-53
2016-06-28T10:02:25.568Z,-56
2016-06-28T10:03:25.474Z,-49
2016-06-28T10:04:25.414Z,-52
2016-06-28T10:05:25.766Z,-54
2016-06-28T10:06:25.491Z,-51
2016-06-28T10:07:25.511Z,-56
2016-06-28T10:08:26.864Z,-52
2016-06-28T10:09:25.491Z,-48
2016-06-28T10:10:25.419Z,-52
2016-06-28T10:11:25.454Z,-53
2016-06-28T10:12:25.509Z,-50
2016-06-28T10:13:25.497Z,-51
2016-06-28T10:14:25.463Z,-50
2016-06-28T10:15:25.451Z,-52
2016-06-28T10:16:25.455Z,-51
2016-06-28T10:17:25.460Z,-53
2016-06-28T10:18:26.275Z,-55
2016-06-28T10:19:25.452Z,-51
2016-06-28T10:20:25.433Z,-47
2016-06-28T10:21:25.551Z,-51
2016-06-28T10:22:25.498Z,-51
2016-06-28T10:23:25.527Z,-51
2016-06-28T10:24:25.479Z,-50
2016-06-28T10:25:25.426Z,-52
2016-06-28T10:26:25.406Z,-52
2016-06-28T10:27:26.039Z,-48
2016-06-28T10:28:25.483Z,-50
2016-06-28T10:29:25.559Z,-53
2016-06-28T10:30:25.441Z,-49
2016-06-28T10:31:25.570Z,-52
2016-06-28T10:32:25.455Z,-51
2016-06-28T10:33:25.486Z,-52
2016-06-28T10:34:25.421Z,-50
2016-06-28T10:35:25.529Z,-53
2016-06-28T10:36:25.446Z,-53
2016-06-28T10:37:25.456Z,-52
2016-06-28T10:38:25.533Z,-52
2016-06-28T10:39:25.659Z,-50
2016-06-28T10:40:25.538Z,-52
2016-06-28T10:41:25.433Z,-52
2016-06-28T10:42:25.580Z,-52
2016-06-28T10:43:25.672Z,-49
2016-06-28T10:44:25.475Z,-52
2016-06-28T10:45:25.514Z,-53
2016-06-28T10:46:25.546Z,-50
2016-06-28T10:47:25.674Z,-53
2016-06-28T10:48:25.551Z,-52
2016-06-28T10:49:25.511Z,-54
2016-06-28T10:50:25.442Z,-55
2016-06-28T10:51:25.467Z,-53
2016-06-28T10:52:26.114Z,-55
2016-06-28T10:53:25.629Z,-54
2016-06-28T10:54:25.465Z,-56
2016-06-28T10:55:25.524Z,-55
2016-06-28T10:56:25.503Z,-56
2016-06-28T10:57:26.284Z,-54
2016-06-28T10:58:25.544Z,-55
2016-06-28T10:59:25.490Z,-55
2016-06-28T11:00:25.426Z,-55
2016-06-28T11:01:25.487Z,-55
2016-06-28T11:02:25.478Z,-56
2016-06-28T11:03:25.550Z,-54
2016-06-28T11:04:25.473Z,-55
2016-06-28T11:05:25.559Z,-55
2016-06-28T11:06:25.525Z,-55
2016-06-28T11:07:25.538Z,-55
2016-06-28T11:08:25.547Z,-53
2016-06-28T11:09:25.457Z,-54
2016-06-28T11:10:25.496Z,-55
2016-06-28T11:11:25.528Z,-52
2016-06-28T11:12:25.543Z,-51
2016-06-28T11:13:25.674Z,-54
2016-06-28T11:14:25.549Z,-52
2016-06-28T11:15:25.555Z,-53
2016-06-28T11:16:25.531Z,-54
2016-06-28T11:17:25.704Z,-51
2016-06-28T11:18:25.630Z,-53
2016-06-28T11:19:25.494Z,-54
2016-06-28T11:20:25.776Z,-55
2016-06-28T11:21:25.591Z,-54
2016-06-28T11:22:25.649Z,-55
2016-06-28T11:23:25.542Z,-53
2016-06-28T11:24:25.559Z,-53
2016-06-28T11:25:25.529Z,-53
2016-06-28T11:26:25.543Z,-49
2016-06-28T11:27:25.546Z,-55
2016-06-28T11:28:25.530Z,-53
2016-06-28T11:29:25.558Z,-52
2016-06-28T11:30:25.547Z,-54
2016-06-28T11:31:25.604Z,-56
2016-06-28T11:32:25.601Z,-54
2016-06-28T11:33:25.599Z,-53
2016-06-28T11:34:25.542Z,-53
2016-06-28T11:35:25.564Z,-56
2016-06-28T11:36:25.570Z,-53
2016-06-28T11:37:25.517Z,-55
2016-06-28T11:38:25.546Z,-52
2016-06-28T11:39:25.550Z,-55
2016-06-28T11:40:25.506Z,-55
2016-06-28T11:41:25.593Z,-54
2016-06-28T11:42:25.609Z,-55
2016-06-28T11:43:25.603Z,-54
2016-06-28T11:44:25.547Z,-53
2016-06-28T11:45:25.574Z,-50
2016-06-28T11:46:25.521Z,-55
2016-06-28T11:47:25.729Z,-53
2016-06-28T11:48:25.561Z,-49
2016-06-28T11:49:25.567Z,-55
2016-06-28T11:50:25.559Z,-55
2016-06-28T11:51:25.594Z,-54
2016-06-28T11:52:25.586Z,-54
2016-06-28T11:53:25.575Z,-54
2016-06-28T11:54:25.596Z,-53
2016-06-28T11:55:25.635Z,-53
2016-06-28T11:56:25.575Z,-53
2016-06-28T11:57:25.647Z,-53
2016-06-28T11:58:25.630Z,-52
2016-06-28T11:59:25.622Z,-54
2016-06-28T12:00:26.150Z,-54
2016-06-28T12:01:25.698Z,-55
2016-06-28T12:02:25.577Z,-53
2016-06-28T12:03:25.549Z,-55
2016-06-28T12:04:25.546Z,-55
2016-06-28T12:05:25.552Z,-56
2016-06-28T12:06:25.599Z,-52
2016-06-28T12:07:25.532Z,-54
2016-06-28T12:08:25.546Z,-55
2016-06-28T12:09:25.562Z,-55
2016-06-28T12:10:25.604Z,-54
2016-06-28T12:11:25.550Z,-54
2016-06-28T12:12:25.802Z,-55
2016-06-28T12:13:25.598Z,-52
2016-06-28T12:14:25.618Z,-55
2016-06-28T12:15:25.582Z,-55
2016-06-28T12:16:25.566Z,-54
2016-06-28T12:17:25.606Z,-55
2016-06-28T12:18:25.577Z,-55
2016-06-28T12:19:25.571Z,-55
2016-06-28T12:20:25.667Z,-54
2016-06-28T12:21:25.590Z,-52
2016-06-28T12:22:25.578Z,-54
2016-06-28T12:23:25.519Z,-53
2016-06-28T12:24:25.527Z,-53
2016-06-28T12:25:25.557Z,-53
2016-06-28T12:26:25.801Z,-53
2016-06-28T12:27:25.540Z,-54
2016-06-28T12:28:25.681Z,-55
2016-06-28T12:29:25.561Z,-51
2016-06-28T12:30:25.575Z,-54
2016-06-28T12:31:25.599Z,-48
2016-06-28T12:32:25.534Z,-53
2016-06-28T12:33:25.551Z,-54
2016-06-28T12:34:25.570Z,-52
2016-06-28T12:35:25.621Z,-53
2016-06-28T12:36:26.274Z,-52
2016-06-28T12:37:25.548Z,-49
2016-06-28T12:38:25.634Z,-51
2016-06-28T12:39:25.587Z,-52
2016-06-28T12:40:25.617Z,-51
2016-06-28T12:41:25.810Z,-51
2016-06-28T12:42:25.638Z,-49
2016-06-28T12:43:25.609Z,-52
2016-06-28T12:44:25.541Z,-52
2016-06-28T12:45:25.714Z,-51
2016-06-28T12:46:25.643Z,-50
2016-06-28T12:47:25.654Z,-51
2016-06-28T12:48:26.494Z,-51
2016-06-28T12:49:25.821Z,-57
2016-06-28T12:50:25.766Z,-56
2016-06-28T12:51:25.768Z,-53
2016-06-28T12:52:25.866Z,-51
2016-06-28T12:53:25.826Z,-55
2016-06-28T12:54:26.059Z,-57
2016-06-28T12:55:27.497Z,-59
2016-06-28T12:56:25.719Z,-52
2016-06-28T12:57:25.651Z,-56
2016-06-28T12:58:25.755Z,-52
2016-06-28T12:59:27.461Z,-54
2016-06-28T13:00:26.598Z,-50
2016-06-28T13:01:25.864Z,-53
2016-06-28T13:02:25.688Z,-52
2016-06-28T13:03:25.952Z,-55
2016-06-28T13:04:25.739Z,-52
2016-06-28T13:05:26.574Z,-54
2016-06-28T13:06:25.815Z,-51
2016-06-28T13:07:25.869Z,-55
2016-06-28T13:08:25.803Z,-51
2016-06-28T13:09:25.758Z,-53
2016-06-28T13:10:25.917Z,-51
2016-06-28T13:11:25.751Z,-53
2016-06-28T13:12:25.696Z,-54
2016-06-28T13:13:26.184Z,-55
2016-06-28T13:14:26.229Z,-55
2016-06-28T13:15:25.833Z,-54
2016-06-28T13:16:25.730Z,-55
2016-06-28T13:17:25.887Z,-54
2016-06-28T13:18:25.761Z,-51
2016-06-28T13:19:25.682Z,-52
2016-06-28T13:20:25.630Z,-56
2016-06-28T13:21:25.672Z,-56
2016-06-28T13:22:25.673Z,-56
2016-06-28T13:23:26.446Z,-54
2016-06-28T13:24:25.627Z,-56
2016-06-28T13:25:25.882Z,-51
2016-06-28T13:26:26.401Z,-54
2016-06-28T13:27:26.627Z,-55
2016-06-28T13:28:25.646Z,-52
2016-06-28T13:29:26.353Z,-55
2016-06-28T13:30:25.890Z,-55
2016-06-28T13:31:25.742Z,-56
2016-06-28T13:32:25.854Z,-51
2016-06-28T13:33:26.396Z,-54
2016-06-28T13:34:26.863Z,-53
2016-06-28T13:35:25.749Z,-53
2016-06-28T13:36:25.811Z,-54
2016-06-28T13:37:25.726Z,-55
2016-06-28T13:38:25.957Z,-55
2016-06-28T13:39:25.843Z,-52
2016-06-28T13:40:25.730Z,-56
2016-06-28T13:41:26.258Z,-55
2016-06-28T13:42:25.642Z,-52
2016-06-28T13:43:25.761Z,-52
2016-06-28T13:44:25.727Z,-53
2016-06-28T13:45:25.685Z,-53
2016-06-28T13:46:25.680Z,-52
2016-06-28T13:47:26.392Z,-54
2016-06-28T13:48:25.698Z,-54
2016-06-28T13:49:25.753Z,-52
2016-06-28T13:50:25.678Z,-54
2016-06-28T13:51:25.740Z,-51